createdAt,value
2018-06-14T10:23:36.554Z,15.5
2018-06-14T10:24:36.447Z,15.3
2018-06-14T10:25:36.496Z,15.3
2018-06-14T10:26:36.394Z,15.1
2018-06-14T10:27:36.257Z,15.2
2018-06-14T10:28:37.121Z,15.1
2018-06-14T10:29:40.216Z,15.5
2018-06-14T10:30:40.093Z,15.8
2018-06-14T10:31:40.041Z,15.7
2018-06-14T10:32:39.905Z,15.8
2018-06-14T10:42:15.292Z,16.3
2018-06-14T10:43:15.279Z,16.1
2018-06-14T10:44:15.165Z,15.8
2018-06-14T10:45:15.070Z,15.9
2018-06-14T10:46:14.947Z,15.8
2018-06-14T10:47:14.852Z,15.6
2018-06-14T10:48:14.750Z,15.8
2018-06-14T10:49:14.619Z,15.9
2018-06-14T10:50:14.510Z,16.1
2018-06-14T10:51:14.391Z,16.3
2018-06-14T10:52:14.703Z,16.3
2018-06-14T10:53:14.591Z,16.3
2018-06-14T10:54:14.451Z,16.3
2018-06-14T10:55:14.325Z,16.3
2018-06-14T10:56:14.207Z,16.5
2018-06-14T10:57:14.080Z,16.3
2018-06-14T10:58:13.985Z,16.4
2018-06-14T10:59:14.770Z,16.5
2018-06-14T11:00:14.659Z,16.6
2018-06-14T11:01:14.545Z,16.6
2018-06-14T11:02:15.454Z,16.4
2018-06-14T11:03:15.350Z,16.5
2018-06-14T11:04:15.227Z,16.5
2018-06-14T11:05:15.122Z,16.3
2018-06-14T11:06:15.006Z,16.4
2018-06-14T11:07:14.881Z,16.4
2018-06-14T11:08:14.774Z,16.5
2018-06-14T11:09:14.682Z,16.7
2018-06-14T11:10:14.562Z,16.8
2018-06-14T11:11:14.449Z,16.7
2018-06-14T11:12:14.780Z,16.8
2018-06-14T11:13:14.831Z,16.8
2018-06-14T11:14:14.958Z,16.9
2018-06-14T11:15:15.135Z,16.7
2018-06-14T11:16:15.015Z,16.7
2018-06-14T11:17:14.908Z,16.7
2018-06-14T11:18:14.838Z,16.6
2018-06-14T11:19:14.731Z,16.5
2018-06-14T11:20:14.778Z,16.7
2018-06-14T11:21:14.822Z,16.8
2018-06-14T11:22:15.133Z,16.8
2018-06-14T11:23:15.021Z,17
2018-06-14T11:24:15.003Z,17.1
2018-06-14T11:25:14.878Z,17.1
2018-06-14T11:26:14.738Z,16.9
2018-06-14T11:27:14.630Z,16.6
2018-06-14T11:28:14.523Z,16.7
2018-06-14T11:29:14.417Z,16.7
2018-06-14T11:30:14.289Z,16.9
2018-06-14T11:31:14.183Z,17.1
2018-06-14T11:32:14.524Z,17.1
2018-06-14T11:33:14.452Z,17.1
2018-06-14T11:34:14.365Z,17.3
2018-06-14T11:35:14.258Z,17.4
2018-06-14T11:36:14.149Z,17.4
2018-06-14T11:37:14.030Z,17.3
2018-06-14T11:38:13.907Z,17.3
2018-06-14T11:39:13.781Z,17.2
2018-06-14T11:40:13.700Z,17.1
2018-06-14T11:41:13.588Z,17.1
2018-06-14T11:42:13.882Z,17.1
2018-06-14T11:43:13.760Z,17.1
2018-06-14T11:44:13.689Z,17.1
2018-06-14T11:45:13.588Z,17
2018-06-14T11:46:13.449Z,17
2018-06-14T11:47:13.346Z,17.1
2018-06-14T11:48:13.273Z,17.2
2018-06-14T11:49:13.299Z,17.2
2018-06-14T11:50:13.207Z,17
2018-06-14T11:51:13.088Z,16.9
2018-06-14T11:52:13.381Z,17
2018-06-14T11:53:13.273Z,17.2
2018-06-14T11:54:13.271Z,17.3
2018-06-14T11:55:13.378Z,17.2
2018-06-14T11:56:13.263Z,17.2
2018-06-14T11:57:13.144Z,17.3
2018-06-14T11:58:13.021Z,17.3
2018-06-14T11:59:12.913Z,17.1
2018-06-14T12:00:12.813Z,17.2
2018-06-14T12:01:12.808Z,17.3
2018-06-14T12:02:13.464Z,17.3
2018-06-14T12:03:13.356Z,17.3
2018-06-14T12:04:13.243Z,17.5
2018-06-14T12:05:13.141Z,17.6
2018-06-14T12:06:13.035Z,17.5
2018-06-14T12:07:12.909Z,17.5
2018-06-14T12:08:12.788Z,17.5
2018-06-14T12:09:12.895Z,17.6
2018-06-14T12:10:12.812Z,17.7
2018-06-14T12:11:12.718Z,17.4
2018-06-14T12:12:13.018Z,17.3
2018-06-14T12:13:12.894Z,17.4
2018-06-14T12:14:12.782Z,17.4
2018-06-14T12:15:12.924Z,17.4
2018-06-14T12:16:13.238Z,17.2
2018-06-14T12:17:13.101Z,17.1
2018-06-14T12:18:12.979Z,17.1
2018-06-14T12:19:12.861Z,17.1
2018-06-14T12:20:12.745Z,17.1
2018-06-14T12:21:12.635Z,16.9
2018-06-14T12:22:12.970Z,17
2018-06-14T12:23:12.859Z,17.1
2018-06-14T12:24:12.753Z,17.1
2018-06-14T12:25:12.653Z,17.1
2018-06-14T12:26:12.550Z,17.1
2018-06-14T12:27:12.665Z,17.1
2018-06-14T12:28:12.592Z,17.1
2018-06-14T12:29:12.477Z,17.1
2018-06-14T12:30:12.363Z,17.2
2018-06-14T12:31:12.258Z,17.1
2018-06-14T12:32:12.777Z,17.1
2018-06-14T12:33:12.686Z,17.1
2018-06-14T12:34:12.617Z,17.1
2018-06-14T12:35:12.507Z,17.1
2018-06-14T12:36:12.421Z,17.1
2018-06-14T12:37:12.297Z,17.1
2018-06-14T12:38:12.197Z,17
2018-06-14T12:39:12.063Z,17.1
2018-06-14T12:40:12.006Z,17.2
2018-06-14T12:41:11.903Z,17.3
2018-06-14T12:42:12.213Z,17.4
2018-06-14T12:43:12.094Z,17.4
2018-06-14T12:44:12.211Z,17.3
2018-06-14T12:45:12.269Z,17.3
2018-06-14T12:46:12.139Z,17.1
2018-06-14T12:47:12.037Z,17.1
2018-06-14T12:48:12.144Z,17.1
2018-06-14T12:49:12.017Z,17.2
2018-06-14T12:50:11.889Z,17.3
2018-06-14T12:51:11.787Z,17.2
2018-06-14T12:52:12.122Z,17.3
2018-06-14T12:53:12.017Z,17.3
2018-06-14T12:54:11.898Z,17.4
2018-06-14T12:55:11.807Z,17.4
2018-06-14T12:56:11.701Z,17.5
2018-06-14T12:57:11.617Z,17.5
2018-06-14T12:58:11.490Z,17.4
2018-06-14T12:59:11.368Z,17.4
2018-06-14T13:00:11.902Z,17.2
2018-06-14T13:01:11.797Z,17.3
2018-06-14T13:02:12.123Z,17.5
2018-06-14T13:03:12.027Z,17.6
2018-06-14T13:04:12.258Z,17.6
2018-06-14T13:05:12.461Z,17.6
2018-06-14T13:06:12.363Z,17.6
2018-06-14T13:07:12.231Z,17.5
2018-06-14T13:08:12.141Z,17.5
2018-06-14T13:09:12.028Z,17.3
2018-06-14T13:10:11.923Z,17.4
2018-06-14T13:11:11.976Z,17.3
2018-06-14T13:12:12.621Z,17.4
2018-06-14T13:13:12.539Z,17.5
2018-06-14T13:14:12.479Z,17.6
2018-06-14T13:15:12.362Z,17.4
2018-06-14T13:16:12.249Z,17.4
2018-06-14T13:17:12.156Z,17.5
2018-06-14T13:18:12.039Z,17.4
2018-06-14T13:19:11.918Z,17
2018-06-14T13:20:11.801Z,16.9
2018-06-14T13:21:11.918Z,16.8
2018-06-14T13:22:12.210Z,16.8
2018-06-14T13:23:12.122Z,16.9
2018-06-14T13:24:12.354Z,16.9
2018-06-14T13:25:12.509Z,17
2018-06-14T13:26:12.392Z,17.1
2018-06-14T13:27:12.268Z,17.1
2018-06-14T13:28:12.133Z,17.2
2018-06-14T13:29:12.063Z,17.1
2018-06-14T13:30:11.961Z,17.3
2018-06-14T13:31:11.839Z,17.4
2018-06-14T13:32:12.195Z,17.3
2018-06-14T13:33:12.081Z,17.3
2018-06-14T13:34:11.988Z,17.1
2018-06-14T13:35:12.143Z,16.9
2018-06-14T13:36:12.024Z,17
2018-06-14T13:37:11.898Z,17.2
2018-06-14T13:38:11.773Z,17.2
2018-06-14T13:39:11.686Z,16.9
2018-06-14T13:40:11.568Z,16.8
2018-06-14T13:41:11.448Z,16.7
2018-06-14T13:42:11.927Z,16.8
2018-06-14T13:43:11.827Z,17
2018-06-14T13:44:11.716Z,17.1
2018-06-14T13:45:12.275Z,17.1
2018-06-14T13:46:12.208Z,17.1
2018-06-14T13:47:12.098Z,17
2018-06-14T13:48:11.992Z,17
2018-06-14T13:49:12.427Z,17.1
2018-06-14T13:50:13.106Z,17.2
2018-06-14T13:51:12.998Z,17.1
2018-06-14T13:52:13.278Z,17.1
2018-06-14T13:53:13.163Z,17.2
2018-06-14T13:54:13.057Z,17.1
2018-06-14T13:55:12.961Z,17.2
2018-06-14T13:56:12.845Z,17.3
2018-06-14T13:57:12.716Z,17.4
2018-06-14T13:58:12.616Z,17.5
2018-06-14T13:59:12.495Z,17.5
2018-06-14T14:00:12.410Z,17.4
2018-06-14T14:01:13.159Z,17.3
2018-06-14T14:02:14.417Z,17.4
2018-06-14T14:03:14.304Z,17.4
2018-06-14T14:04:14.182Z,17.4
2018-06-14T14:05:14.083Z,17.5
2018-06-14T14:06:13.941Z,17.6
2018-06-14T14:07:13.836Z,17.7
2018-06-14T14:08:13.711Z,17.7
2018-06-14T14:09:13.603Z,17.7
2018-06-14T14:10:13.540Z,17.6
2018-06-14T14:11:13.424Z,17.6
2018-06-14T14:12:13.720Z,17.6
2018-06-14T14:13:13.610Z,17.6
2018-06-14T14:14:13.516Z,17.6
2018-06-14T14:15:13.391Z,17.6
2018-06-14T14:16:13.278Z,17.5
2018-06-14T14:17:13.169Z,17.5
2018-06-14T14:18:13.041Z,17.6
2018-06-14T14:19:12.929Z,17.6
2018-06-14T14:20:12.810Z,17.5
2018-06-14T14:21:12.731Z,17.5
2018-06-14T14:22:12.994Z,17.4
2018-06-14T14:23:12.863Z,17.4
2018-06-14T14:24:12.754Z,17.3
2018-06-14T14:25:12.637Z,17.1
2018-06-14T14:26:12.566Z,17.2
2018-06-14T14:27:12.448Z,17.3
2018-06-14T14:28:12.313Z,17.3
2018-06-14T14:29:12.196Z,17.4
2018-06-14T14:30:12.076Z,17.5
2018-06-14T14:31:11.955Z,17.4
2018-06-14T14:32:12.257Z,17.3
2018-06-14T14:33:12.147Z,17.3
2018-06-14T14:34:12.026Z,17.3
2018-06-14T14:35:11.935Z,17.3
2018-06-14T14:36:13.395Z,17.4
2018-06-14T14:37:13.673Z,17.4
2018-06-14T14:38:13.554Z,17.5
2018-06-14T14:39:13.427Z,17.7
2018-06-14T14:40:13.299Z,17.7
2018-06-14T14:41:13.161Z,17.7
2018-06-14T14:42:13.458Z,17.5
2018-06-14T14:43:13.345Z,17.5
2018-06-14T14:44:13.218Z,17.6
2018-06-14T14:45:13.105Z,17.6
2018-06-14T14:46:13.030Z,17.6
2018-06-14T14:47:12.934Z,17.7
2018-06-14T14:48:12.827Z,17.7
2018-06-14T14:49:12.711Z,17.7
2018-06-14T14:50:12.597Z,17.7
2018-06-14T14:51:12.481Z,17.8
2018-06-14T14:52:12.782Z,17.8
2018-06-14T14:53:13.029Z,17.6
2018-06-14T14:54:13.569Z,17.5
2018-06-14T14:55:13.439Z,17.5
2018-06-14T14:56:13.319Z,17.4
2018-06-14T14:57:13.195Z,17.5
2018-06-14T14:58:13.103Z,17.5
2018-06-14T14:59:12.985Z,17.5
2018-06-14T15:00:12.860Z,17.7
2018-06-14T15:01:12.734Z,17.8
2018-06-14T15:02:13.020Z,17.9
2018-06-14T15:03:12.937Z,18
2018-06-14T15:04:15.623Z,18.1
2018-06-14T15:05:15.495Z,18.1
2018-06-14T15:06:15.391Z,18.1
2018-06-14T15:07:15.281Z,18.2
2018-06-14T15:08:15.199Z,18.2
2018-06-14T15:09:15.061Z,18.3
2018-06-14T15:10:14.937Z,18.3
2018-06-14T15:11:14.799Z,18.3
2018-06-14T15:12:15.123Z,18.4
2018-06-14T15:13:15.025Z,18.2
2018-06-14T15:14:15.099Z,18.1
2018-06-14T15:15:15.328Z,18.1
2018-06-14T15:16:15.207Z,18.2
2018-06-14T15:17:15.086Z,18.2
2018-06-14T15:18:14.979Z,18.2
2018-06-14T15:19:15.083Z,18.2
2018-06-14T15:20:14.971Z,18.3
2018-06-14T15:21:14.847Z,18.4
2018-06-14T15:22:15.132Z,18.4
2018-06-14T15:23:14.999Z,18.4
2018-06-14T15:24:14.910Z,18.4
2018-06-14T15:25:14.797Z,18.4
2018-06-14T15:26:14.676Z,18.3
2018-06-14T15:27:14.559Z,18.4
2018-06-14T15:28:14.439Z,18.3
2018-06-14T15:29:14.401Z,18.3
2018-06-14T15:30:14.296Z,18.2
2018-06-14T15:31:14.172Z,18.3
2018-06-14T15:32:14.464Z,18.3
2018-06-14T15:33:14.387Z,18.2
2018-06-14T15:34:14.293Z,18.2
2018-06-14T15:35:14.158Z,18.1
2018-06-14T15:36:14.034Z,18.2
2018-06-14T15:37:14.175Z,18.3
2018-06-14T15:38:14.328Z,18.4
2018-06-14T15:39:14.211Z,18.4
2018-06-14T15:40:14.121Z,18.5
2018-06-14T15:41:13.972Z,18.5
2018-06-14T15:42:14.270Z,18.5
2018-06-14T15:43:14.160Z,18.4
2018-06-14T15:44:14.033Z,18.3
2018-06-14T15:45:13.910Z,18.1
2018-06-14T15:46:13.779Z,18
2018-06-14T15:47:13.664Z,18
2018-06-14T15:48:13.546Z,17.9
2018-06-14T15:49:13.425Z,18
2018-06-14T15:50:13.306Z,17.9
2018-06-14T15:51:13.172Z,17.8
2018-06-14T15:52:13.449Z,17.8
2018-06-14T15:53:13.326Z,17.8
2018-06-14T15:54:13.286Z,17.8
2018-06-14T15:55:13.247Z,17.9
2018-06-14T15:56:13.128Z,17.8
2018-06-14T15:57:13.006Z,17.9
2018-06-14T15:58:12.878Z,17.9
2018-06-14T15:59:12.766Z,17.9
2018-06-14T16:00:12.688Z,17.8
2018-06-14T16:01:12.574Z,17.6
2018-06-14T16:02:12.864Z,17.4
2018-06-14T16:03:12.746Z,17.3
2018-06-14T16:04:12.713Z,17.4
2018-06-14T16:05:12.697Z,17.5
2018-06-14T16:06:12.609Z,17.5
2018-06-14T16:07:12.478Z,17.6
2018-06-14T16:08:13.043Z,17.6
2018-06-14T16:09:12.927Z,17.7
2018-06-14T16:10:12.819Z,17.8
2018-06-14T16:11:12.720Z,17.8
2018-06-14T16:12:13.005Z,17.7
2018-06-14T16:13:12.887Z,17.6
2018-06-14T16:14:12.766Z,17.5
2018-06-14T16:15:12.628Z,17.5
2018-06-14T16:16:12.512Z,17.6
2018-06-14T16:17:12.412Z,17.7
2018-06-14T16:18:12.276Z,17.8
2018-06-14T16:19:12.168Z,17.7
2018-06-14T16:20:12.044Z,17.7
2018-06-14T16:21:12.124Z,17.7
2018-06-14T16:22:12.648Z,17.7
2018-06-14T16:23:12.517Z,17.8
2018-06-14T16:24:13.405Z,17.8
2018-06-14T16:25:13.294Z,17.8
2018-06-14T16:26:13.203Z,17.7
2018-06-14T16:27:13.137Z,17.7
2018-06-14T16:28:13.022Z,17.7
2018-06-14T16:29:12.909Z,17.7
2018-06-14T16:30:12.785Z,17.8
2018-06-14T16:31:12.662Z,17.7
2018-06-14T16:32:12.991Z,17.7
2018-06-14T16:33:12.876Z,17.7
2018-06-14T16:34:12.961Z,17.7
2018-06-14T16:35:13.051Z,17.7
2018-06-14T16:36:12.937Z,17.8
2018-06-14T16:37:12.858Z,17.8
2018-06-14T16:38:12.761Z,17.8
2018-06-14T16:39:12.652Z,17.8
2018-06-14T16:40:12.739Z,17.9
2018-06-14T16:41:12.709Z,17.9
2018-06-14T16:42:13.022Z,17.8
2018-06-14T16:43:13.009Z,17.7
2018-06-14T16:44:13.216Z,17.8
2018-06-14T16:45:13.135Z,17.8
2018-06-14T16:46:13.021Z,17.8
2018-06-14T16:47:12.962Z,17.7
2018-06-14T16:48:13.072Z,17.7
2018-06-14T16:49:13.165Z,17.5
2018-06-14T16:50:13.268Z,17.4
2018-06-14T16:51:13.225Z,17.4
2018-06-14T16:52:16.836Z,17.5
2018-06-14T16:53:16.997Z,17.5
2018-06-14T16:54:16.867Z,17.6
2018-06-14T16:55:19.460Z,17.6
2018-06-14T16:56:19.318Z,17.5
2018-06-14T16:57:19.223Z,17.5
2018-06-14T16:58:19.150Z,17.5
2018-06-14T16:59:22.141Z,17.4
2018-06-14T17:00:22.247Z,17.4
2018-06-14T17:01:22.151Z,17.4
2018-06-14T17:02:22.443Z,17.4
2018-06-14T17:03:23.435Z,17.4
2018-06-14T17:04:23.308Z,17.4
2018-06-14T17:05:23.339Z,17.4
2018-06-14T17:06:23.523Z,17.3
2018-06-14T17:07:23.576Z,17.3
2018-06-14T17:08:23.452Z,17.3
2018-06-14T17:09:23.719Z,17.3
2018-06-14T17:10:24.045Z,17.3
2018-06-14T17:11:24.057Z,17.3
2018-06-14T17:12:24.359Z,17.3
2018-06-14T17:13:24.350Z,17.4
2018-06-14T17:14:24.391Z,17.4
2018-06-14T17:15:24.290Z,17.3
2018-06-14T17:16:24.687Z,17.4
2018-06-14T17:17:27.663Z,17.4
2018-06-14T17:18:27.936Z,17.4
2018-06-14T17:19:28.054Z,17.4
2018-06-14T17:20:27.941Z,17.3
2018-06-14T17:21:27.809Z,17.3
2018-06-14T17:22:28.144Z,17.3
2018-06-14T17:23:28.037Z,17.4
2018-06-14T17:24:27.918Z,17.4
2018-06-14T17:25:27.825Z,17.4
2018-06-14T17:26:27.722Z,17.4
2018-06-14T17:27:27.585Z,17.4
2018-06-14T17:28:28.108Z,17.4
2018-06-14T17:29:28.219Z,17.4
2018-06-14T17:30:28.138Z,17.5
2018-06-14T17:31:28.021Z,17.5
2018-06-14T17:32:29.072Z,17.5
2018-06-14T17:33:28.944Z,17.5
2018-06-14T17:34:28.810Z,17.5
2018-06-14T17:35:28.724Z,17.6
2018-06-14T17:36:29.612Z,17.6
2018-06-14T17:37:29.486Z,17.5
2018-06-14T17:38:29.376Z,17.6
2018-06-14T17:39:29.270Z,17.6
2018-06-14T17:40:29.379Z,17.5
2018-06-14T17:41:29.733Z,17.5
2018-06-14T17:42:30.764Z,17.5
2018-06-14T17:43:30.664Z,17.5
2018-06-14T17:44:30.568Z,17.5
2018-06-14T17:45:30.476Z,17.6
2018-06-14T17:46:30.371Z,17.5
2018-06-14T17:47:30.260Z,17.5
2018-06-14T17:48:30.175Z,17.5
2018-06-14T17:49:30.106Z,17.5
2018-06-14T17:50:29.996Z,17.4
2018-06-14T17:51:29.922Z,17.4
2018-06-14T17:52:30.235Z,17.3
2018-06-14T17:53:30.308Z,17.3
2018-06-14T17:54:30.503Z,17.2
2018-06-14T17:55:30.377Z,17.3
2018-06-14T17:56:30.277Z,17.4
2018-06-14T17:57:30.161Z,17.3
2018-06-14T17:58:30.055Z,17.3
2018-06-14T17:59:29.957Z,17.3
2018-06-14T18:00:29.992Z,17.2
2018-06-14T18:01:30.099Z,17.2
2018-06-14T18:02:30.584Z,17.1
2018-06-14T18:03:30.485Z,17.1
2018-06-14T18:04:30.813Z,17.1
2018-06-14T18:05:30.705Z,17.1
2018-06-14T18:06:30.931Z,17.2
2018-06-14T18:07:31.205Z,17.2
2018-06-14T18:08:31.135Z,17.2
2018-06-14T18:09:31.023Z,17.2
2018-06-14T18:10:30.920Z,17.3
2018-06-14T18:11:30.852Z,17.2
2018-06-14T18:12:31.337Z,17.3
2018-06-14T18:13:31.220Z,17.3
2018-06-14T18:14:31.108Z,17.3
2018-06-14T18:15:31.009Z,17.3
2018-06-14T18:16:30.898Z,17.2
2018-06-14T18:17:30.812Z,17.1
2018-06-14T18:18:30.716Z,17.1
2018-06-14T18:19:30.593Z,17.1
2018-06-14T18:20:30.480Z,17.1
2018-06-14T18:21:30.361Z,17.1
2018-06-14T18:22:31.186Z,17.1
2018-06-14T18:23:31.101Z,17.1
2018-06-14T18:24:30.986Z,17.1
2018-06-14T18:25:30.872Z,17.1
2018-06-14T18:26:30.766Z,17.1
2018-06-14T18:27:30.661Z,17.1
2018-06-14T18:28:30.551Z,17.1
2018-06-14T18:29:30.441Z,17.1
2018-06-14T18:30:30.354Z,17
2018-06-14T18:31:30.270Z,17
2018-06-14T18:32:30.671Z,17
2018-06-14T18:33:30.728Z,17
2018-06-14T18:34:30.618Z,17
2018-06-14T18:35:30.536Z,16.9
2018-06-14T18:36:30.430Z,16.9
2018-06-14T18:37:30.330Z,16.8
2018-06-14T18:38:30.227Z,16.8
2018-06-14T18:39:30.128Z,16.8
2018-06-14T18:40:30.038Z,16.7
2018-06-14T18:41:29.930Z,16.7
2018-06-14T18:42:30.243Z,16.7
2018-06-14T18:43:30.148Z,16.7
2018-06-14T18:44:30.294Z,16.7
2018-06-14T18:45:30.313Z,16.6
2018-06-14T18:46:30.227Z,16.6
2018-06-14T18:47:30.134Z,16.5
2018-06-14T18:48:30.069Z,16.6
2018-06-14T18:49:29.979Z,16.6
2018-06-14T18:50:29.865Z,16.6
2018-06-14T18:51:29.758Z,16.6
2018-06-14T18:52:30.062Z,16.6
2018-06-14T18:53:29.979Z,16.6
2018-06-14T18:54:29.870Z,16.5
2018-06-14T18:55:29.747Z,16.5
2018-06-14T18:56:29.623Z,16.5
2018-06-14T18:57:29.516Z,16.5
2018-06-14T18:58:29.420Z,16.5
2018-06-14T18:59:29.306Z,16.5
2018-06-14T19:00:29.190Z,16.5
2018-06-14T19:01:29.173Z,16.4
2018-06-14T19:02:29.499Z,16.4
2018-06-14T19:03:29.390Z,16.4
2018-06-14T19:04:29.307Z,16.4
2018-06-14T19:05:29.203Z,16.3
2018-06-14T19:06:29.093Z,16.3
2018-06-14T19:07:29.026Z,16.3
2018-06-14T19:08:28.940Z,16.3
2018-06-14T19:09:28.810Z,16.3
2018-06-14T19:10:28.679Z,16.3
2018-06-14T19:11:28.548Z,16.3
2018-06-14T19:12:31.004Z,16.3
2018-06-14T19:13:30.927Z,16.2
2018-06-14T19:14:30.811Z,16.2
2018-06-14T19:15:30.693Z,16.1
2018-06-14T19:16:30.578Z,16.1
2018-06-14T19:17:30.927Z,16.1
2018-06-14T19:18:31.188Z,16
2018-06-14T19:19:31.075Z,16
2018-06-14T19:20:30.978Z,15.9
2018-06-14T19:21:30.876Z,15.9
2018-06-14T19:22:31.177Z,15.9
2018-06-14T19:23:31.141Z,15.9
2018-06-14T19:24:31.047Z,15.9
2018-06-14T19:25:31.157Z,15.9
2018-06-14T19:26:34.504Z,15.9
2018-06-14T19:27:34.411Z,15.8
2018-06-14T19:28:34.294Z,15.8
2018-06-14T19:29:34.209Z,15.7
2018-06-14T19:30:34.104Z,15.7
2018-06-14T19:31:33.988Z,15.6
2018-06-14T19:32:34.296Z,15.7
2018-06-14T19:33:34.261Z,15.6
2018-06-14T19:34:34.146Z,15.5
2018-06-14T19:35:34.048Z,15.5
2018-06-14T19:36:33.977Z,15.5
2018-06-14T19:37:34.096Z,15.4
2018-06-14T19:38:33.959Z,15.5
2018-06-14T19:39:33.842Z,15.5
2018-06-14T19:40:33.739Z,15.5
2018-06-14T19:41:33.621Z,15.5
2018-06-14T19:42:33.952Z,15.5
2018-06-14T19:43:33.833Z,15.5
2018-06-14T19:44:33.703Z,15.5
2018-06-14T19:45:33.586Z,15.5
2018-06-14T19:46:33.471Z,15.5
2018-06-14T19:47:33.339Z,15.4
2018-06-14T19:48:33.217Z,15.5
2018-06-14T19:49:33.105Z,15.5
2018-06-14T19:50:33.002Z,15.5
2018-06-14T19:51:32.881Z,15.5
2018-06-14T19:52:33.155Z,15.5
2018-06-14T19:53:33.029Z,15.5
2018-06-14T19:54:32.926Z,15.4
2018-06-14T19:55:32.817Z,15.5
2018-06-14T19:56:32.733Z,15.5
2018-06-14T19:57:32.626Z,15.5
2018-06-14T19:58:32.530Z,15.5
2018-06-14T19:59:32.466Z,15.4
2018-06-14T20:00:32.373Z,15.4
2018-06-14T20:01:32.265Z,15.5
2018-06-14T20:02:32.561Z,15.5
2018-06-14T20:03:32.460Z,15.5
2018-06-14T20:04:32.345Z,15.5
2018-06-14T20:05:32.238Z,15.5
2018-06-14T20:06:32.119Z,15.5
2018-06-14T20:07:32.005Z,15.5
2018-06-14T20:08:31.909Z,15.4
2018-06-14T20:09:31.823Z,15.4
2018-06-14T20:10:31.726Z,15.4
2018-06-14T20:11:31.621Z,15.4
2018-06-14T20:12:31.977Z,15.4
2018-06-14T20:13:31.896Z,15.4
2018-06-14T20:14:31.787Z,15.4
2018-06-14T20:15:31.668Z,15.4
2018-06-14T20:16:31.626Z,15.5
2018-06-14T20:17:31.488Z,15.5
2018-06-14T20:18:31.357Z,15.5
2018-06-14T20:19:31.242Z,15.6
2018-06-14T20:20:31.306Z,15.6
2018-06-14T20:21:31.297Z,15.7
2018-06-14T20:22:31.613Z,15.7
2018-06-14T20:23:31.502Z,15.7
2018-06-14T20:24:31.390Z,15.7
2018-06-14T20:25:31.264Z,15.7
2018-06-14T20:26:31.309Z,15.6
2018-06-14T20:27:31.394Z,15.6
2018-06-14T20:28:31.276Z,15.6
2018-06-14T20:29:31.169Z,15.6
2018-06-14T20:30:31.073Z,15.6
2018-06-14T20:31:30.968Z,15.5
2018-06-14T20:32:33.481Z,15.5
2018-06-14T20:33:33.408Z,15.5
2018-06-14T20:34:33.302Z,15.4
2018-06-14T20:35:33.196Z,15.4
2018-06-14T20:36:33.137Z,15.4
2018-06-14T20:37:33.039Z,15.4
2018-06-14T20:38:32.928Z,15.4
2018-06-14T20:39:32.817Z,15.4
2018-06-14T20:40:32.703Z,15.4
2018-06-14T20:41:32.602Z,15.4
2018-06-14T20:42:33.596Z,15.4
2018-06-14T20:43:33.502Z,15.5
2018-06-14T20:44:33.376Z,15.4
2018-06-14T20:45:33.255Z,15.4
2018-06-14T20:46:33.143Z,15.4
2018-06-14T20:47:33.030Z,15.4
2018-06-14T20:48:32.898Z,15.4
2018-06-14T20:49:32.787Z,15.4
2018-06-14T20:50:32.664Z,15.3
2018-06-14T20:51:32.572Z,15.3
2018-06-14T20:52:32.948Z,15.2
2018-06-14T20:53:32.841Z,15.2
2018-06-14T20:54:32.745Z,15.1
2018-06-14T20:55:32.640Z,15.1
2018-06-14T20:56:32.514Z,15.1
2018-06-14T20:57:32.535Z,15.1
2018-06-14T20:58:32.721Z,15.1
2018-06-14T20:59:32.614Z,15.1
2018-06-14T21:00:32.523Z,15.1
2018-06-14T21:01:32.401Z,15.1
2018-06-14T21:02:32.711Z,15
2018-06-14T21:03:32.617Z,15
2018-06-14T21:04:32.777Z,15
2018-06-14T21:05:32.654Z,15
2018-06-14T21:06:32.538Z,15.1
2018-06-14T21:07:32.419Z,15.1
2018-06-14T21:08:32.331Z,15.1
2018-06-14T21:09:32.196Z,15
2018-06-14T21:10:32.085Z,15
2018-06-14T21:11:31.962Z,15
2018-06-14T21:12:32.278Z,15.1
2018-06-14T21:13:32.173Z,15
2018-06-14T21:14:32.073Z,15.1
2018-06-14T21:15:32.156Z,15
2018-06-14T21:16:32.039Z,15
2018-06-14T21:17:31.917Z,15
2018-06-14T21:18:31.790Z,15
2018-06-14T21:19:31.678Z,15
2018-06-14T21:20:31.574Z,15
2018-06-14T21:21:31.502Z,15
2018-06-14T21:22:32.023Z,14.9
2018-06-14T21:23:31.891Z,14.9
2018-06-14T21:24:31.820Z,14.9
2018-06-14T21:25:31.705Z,14.9
2018-06-14T21:26:31.588Z,14.9
2018-06-14T21:27:31.462Z,14.8
2018-06-14T21:28:31.335Z,14.8
2018-06-14T21:29:31.237Z,14.9
2018-06-14T21:30:31.119Z,14.9
2018-06-14T21:31:30.999Z,14.9
2018-06-14T21:32:31.297Z,14.9
2018-06-14T21:33:31.174Z,14.9
2018-06-14T21:34:31.061Z,14.9
2018-06-14T21:35:30.942Z,14.9
2018-06-14T21:36:30.823Z,14.9
2018-06-14T21:37:30.682Z,14.8
2018-06-14T21:38:30.554Z,14.8
2018-06-14T21:39:30.467Z,14.8
2018-06-14T21:40:30.352Z,14.7
2018-06-14T21:41:30.228Z,14.7
2018-06-14T21:42:30.542Z,14.7
2018-06-14T21:43:30.428Z,14.6
2018-06-14T21:44:30.333Z,14.6
2018-06-14T21:45:30.196Z,14.6
2018-06-14T21:46:30.335Z,14.6
2018-06-14T21:47:30.208Z,14.6
2018-06-14T21:48:30.079Z,14.6
2018-06-14T21:49:29.988Z,14.6
2018-06-14T21:50:29.866Z,14.5
2018-06-14T21:51:29.739Z,14.5
2018-06-14T21:52:30.048Z,14.5
2018-06-14T21:53:29.941Z,14.5
2018-06-14T21:54:29.913Z,14.5
2018-06-14T21:55:29.819Z,14.4
2018-06-14T21:56:29.706Z,14.4
2018-06-14T21:57:29.572Z,14.4
2018-06-14T21:58:29.460Z,14.3
2018-06-14T21:59:29.364Z,14.3
2018-06-14T22:00:29.258Z,14.3
2018-06-14T22:01:29.121Z,14.3
2018-06-14T22:02:29.441Z,14.3
2018-06-14T22:03:29.359Z,14.2
2018-06-14T22:04:29.234Z,14.2
2018-06-14T22:05:29.152Z,14.3
2018-06-14T22:06:31.323Z,14.2
2018-06-14T22:07:31.214Z,14.2
2018-06-14T22:08:31.108Z,14.1
2018-06-14T22:09:30.974Z,14.1
2018-06-14T22:10:30.863Z,14.1
2018-06-14T22:11:30.800Z,14.1
2018-06-14T22:12:31.102Z,14.1
2018-06-14T22:13:31.003Z,14
2018-06-14T22:14:30.868Z,14
2018-06-14T22:15:30.750Z,13.9
2018-06-14T22:16:30.641Z,13.9
2018-06-14T22:17:30.549Z,14
2018-06-14T22:18:30.436Z,13.9
2018-06-14T22:19:30.582Z,13.9
2018-06-14T22:20:30.454Z,13.9
2018-06-14T22:21:30.349Z,13.9
2018-06-14T22:22:30.598Z,13.8
2018-06-14T22:23:30.504Z,13.8
2018-06-14T22:24:30.397Z,13.8
2018-06-14T22:25:30.273Z,13.8
2018-06-14T22:26:30.184Z,13.9
2018-06-14T22:27:31.092Z,13.8
2018-06-14T22:28:30.968Z,13.8
2018-06-14T22:29:30.845Z,13.9
2018-06-14T22:30:30.736Z,13.9
2018-06-14T22:31:30.667Z,13.8
2018-06-14T22:32:30.958Z,13.8
2018-06-14T22:33:30.817Z,13.9
2018-06-14T22:34:30.670Z,13.9
2018-06-14T22:35:30.555Z,14
2018-06-14T22:36:30.458Z,13.9
2018-06-14T22:37:30.359Z,14
2018-06-14T22:38:30.631Z,14
2018-06-14T22:39:30.499Z,14
2018-06-14T22:40:30.380Z,14
2018-06-14T22:41:32.981Z,14
2018-06-14T22:42:36.026Z,14
2018-06-14T22:43:36.138Z,14.1
2018-06-14T22:44:36.147Z,14.1
2018-06-14T22:45:36.537Z,14.1
2018-06-14T22:46:36.464Z,14.1
2018-06-14T22:47:36.330Z,14.1
2018-06-14T22:48:36.223Z,14
2018-06-14T22:49:36.094Z,14
2018-06-14T22:50:35.962Z,14
2018-06-14T22:51:35.835Z,14
2018-06-14T22:52:36.150Z,14
2018-06-14T22:53:36.014Z,14.1
2018-06-14T22:54:35.899Z,14.1
2018-06-14T22:55:35.790Z,14
2018-06-14T22:56:35.669Z,14
2018-06-14T22:57:35.583Z,14
2018-06-14T22:58:35.470Z,14
2018-06-14T22:59:35.345Z,14
2018-06-14T23:00:35.221Z,14
2018-06-14T23:01:35.076Z,13.9
2018-06-14T23:02:35.368Z,13.9
2018-06-14T23:03:35.268Z,13.9
2018-06-14T23:04:35.136Z,13.9
2018-06-14T23:05:35.009Z,13.8
2018-06-14T23:06:34.904Z,13.8
2018-06-14T23:07:34.781Z,13.8
2018-06-14T23:08:34.662Z,13.7
2018-06-14T23:09:34.564Z,13.6
2018-06-14T23:10:34.682Z,13.6
2018-06-14T23:11:34.572Z,13.6
2018-06-14T23:12:34.877Z,13.6
2018-06-14T23:13:34.767Z,13.5
2018-06-14T23:14:34.678Z,13.4
2018-06-14T23:15:34.555Z,13.4
2018-06-14T23:16:34.452Z,13.3
2018-06-14T23:17:34.309Z,13.3
2018-06-14T23:18:34.394Z,13.3
2018-06-14T23:19:34.265Z,13.3
2018-06-14T23:20:34.171Z,13.3
2018-06-14T23:21:34.072Z,13.2
2018-06-14T23:22:34.354Z,13.2
2018-06-14T23:23:36.669Z,13.2
2018-06-14T23:24:36.549Z,13.2
2018-06-14T23:25:36.452Z,13.3
2018-06-14T23:26:36.329Z,13.2
2018-06-14T23:27:36.218Z,13.2
2018-06-14T23:28:36.099Z,13.2
2018-06-14T23:29:35.989Z,13.2
2018-06-14T23:30:35.884Z,13.2
2018-06-14T23:31:35.771Z,13.2
2018-06-14T23:32:36.048Z,13.3
2018-06-14T23:33:35.911Z,13.2
2018-06-14T23:34:35.784Z,13.2
2018-06-14T23:35:35.645Z,13.2
2018-06-14T23:36:35.554Z,13.1
2018-06-14T23:37:35.438Z,13.1
2018-06-14T23:38:35.318Z,13.1
2018-06-14T23:39:35.166Z,13.1
2018-06-14T23:40:35.047Z,13.1
2018-06-14T23:41:34.926Z,13.1
2018-06-14T23:42:38.134Z,13
2018-06-14T23:43:38.013Z,13
2018-06-14T23:44:37.881Z,13
2018-06-14T23:45:37.988Z,13
2018-06-14T23:46:37.891Z,13
2018-06-14T23:47:37.749Z,13
2018-06-14T23:48:37.617Z,12.9
2018-06-14T23:49:37.495Z,12.9
2018-06-14T23:50:37.435Z,12.9
2018-06-14T23:51:37.341Z,12.9
2018-06-14T23:52:43.580Z,12.8
2018-06-14T23:53:43.469Z,12.8
2018-06-14T23:54:43.347Z,12.8